Shemah Yisrael!
Hear, O Israel: the LORD our God, the LORD is one.
You shall love the LORD your God with all your heart and with all your soul and with all your might.
(Deuteronomy 6:4-5)
Houston / Ellington, TX, United States (KEFD) 29-36N 095-10W
Mar 31, 2020 - 04:50 AM EDT / 2020.03.31 0850 UTC
Wind: from the SW (230 degrees) at 7 MPH (6 KT):0
Visibility: 10 mile(s):0
Sky conditions: overcast
Temperature: 75 F (24 C)
Dew Point: 71 F (22 C)
Relative Humidity: 88%
Pressure (altimeter): 29.85 in. Hg (1010 hPa)
ob: KEFD 310850Z 23006KT 10SM SCT013 OVC019 24/22 A2985 
cycle: 9
w e b m a s t e r   a t   s h e m a h   d o t   n e t